Tiempo atmosférico en la estación meteorológica de Valsequillo, Córdoba (575 m.)



Fecha
DESCASC
Temp. máxima en grados centígrados (hora)
DESCASC
Temp. mínima en grados centígrados (hora)
DESCASC
Temp. media en grados centígrados
DESCASC
Racha de viento máxima en m/sg (hora)
DESCASC
Velocidad máxima media en intervalos de 10 minutos(hora)
DESCASC
Precipitaciones diarias en mm
DESCASC
Precipitaciones de 00:00 a 06:00 en mm
DESCASC
Precipitaciones de 06:00 a 12:00 en mm
DESCASC
Precipitaciones de 12:00 a 18:00 en mm
DESCASC
Precipitaciones de 18:00 a 24:00 en mm
DESCASC
24-05-2020 33.3 (17:10) 16.2 (07:30) 24.8 7.78 (13:30) 4.72 (13:20) 0 0 0 0 0
23-05-2020 33.9 (17:20) 14.5 (06:50) 24.2 8.61 (17:20) 4.72 (21:00) 0 0 0 0 0
22-05-2020 32.6 (18:00) 14.6 (07:40) 23.6 6.67 (16:10) 3.89 (23:00) 0 0 0 0 0
21-05-2020 32 (16:10) 13.6 (00:00) 22.8 6.94 (21:10) 4.44 (21:10) 0 0 0 0 0
20-05-2020 31.1 (18:30) 12.4 (00:00) 21.8 6.67 (18:50) 3.61 (17:00) 0 0 0 0 0
19-05-2020 29.5 (19:10) 10.6 (00:00) 20.1 5.28 (16:20) 2.78 (19:20) 0 0 0 0 0
18-05-2020 27.4 (17:50) 10.4 (00:00) 18.9 6.11 (18:40) 4.17 (20:30) 0 0 0 0 0
17-05-2020 23.5 (17:30) 8.6 (00:00) 16.1 6.67 (18:30) 3.33 (15:40) 0 0 0 0 0
16-05-2020 22.4 (16:00) 6.5 (00:00) 14.4 12.78 (21:40) 6.39 (21:40) 20 0 0 0 20
15-05-2020 19.4 (14:30) 7.2 (00:00) 13.3 7.5 (16:10) 5 (16:40) 0 0 0 0 0
14-05-2020 14.4 (14:50) 8.2 (00:00) 11.3 12.5 (15:30) 6.94 (16:50) 0.4 0 0.2 0 0.2
13-05-2020 18.1 (18:00) 9.6 (00:00) 13.9 9.72 (16:20) 5.83 (15:30) 0.6 0 0 0 0.6
12-05-2020 16.1 (17:50) 10.4 (00:00) 13.3 10 (18:10) 5.83 (12:10) 5.8 0 0 0 5.8
11-05-2020 20.6 (16:20) 10.3 (00:00) 15.5 13.33 (10:00) 8.89 (15:20) 7.2 0 7.2 0 0
10-05-2020 18.9 (15:20) 8.8 (00:00) 13.8 14.17 (17:50) 8.61 (17:30) 2.8 1.2 1.6 0 0
09-05-2020 21.7 (16:20) 10.2 (00:00) 16 13.33 (19:40) 7.5 (19:30) 13.4 0 0 0 13.4
08-05-2020 27 (16:20) 12.9 (00:00) 19.9 9.44 (11:00) 6.11 (10:50) 0 0 0 0 0
07-05-2020 28.5 (16:10) 11.2 (00:00) 19.8 9.72 (16:50) 5.56 (17:10) 0 0 0 0 0
06-05-2020 25.8 (17:00) 8.4 (00:00) 17.1 7.5 (12:50) 4.17 (17:50) 0 0 0 0 0
05-05-2020 25.8 (18:00) 10.5 (00:00) 18.1 7.22 (17:10) 4.72 (19:30) 0 0 0 0 0
04-05-2020 28.4 (13:00) 16.7 (00:00) 22.6 15.83 (13:50) 10.28 (15:00) 0 0 0 0 0
03-05-2020 31 (16:20) 11.4 (00:00) 21.2 7.5 (12:40) 4.72 (12:20) 0 0 0 0 0
02-05-2020 28.5 (17:50) 9.1 (00:00) 18.8 6.67 (18:00) 3.61 (17:00) 0 0 0 0 0
01-05-2020 24.4 (18:10) 8.1 (00:00) 16.3 8.06 (13:40) 4.44 (18:50) 0 0 0 0 0
30-04-2020 18.8 (15:10) 10.5 (00:00) 14.6 10 (09:00) 6.67 (00:50) 1 0 1 0 0
29-04-2020 20.9 (16:20) 5.1 (00:00) 13 11.39 (17:30) 7.22 (19:50) 0 0 0 0 0
28-04-2020 17.9 (16:30) 5.8 (00:00) 11.8 9.44 (15:20) 5.56 (15:20) 0 0 0 0 0
27-04-2020 16.3 (17:30) 8.9 (00:00) 12.6 8.89 (18:20) 5.56 (13:10) 10.4 0 2.2 1.6 6.6
26-04-2020 16.6 (14:40) 8.9 (00:00) 12.8 8.06 (18:00) 5 (01:30) 0 0 0 0 0

Gráficas

Temp. máximas Temp. mínimas Temp. medias Precipitaciones Rachas de viento máximas Velocidades máximas media en intervalos de 10 minutos

Datos horarios

Fecha y hora oficial Temperatura (ºC) Velocidad del viento (km/h) Dirección del viento Racha (km/h) Dirección de racha Precipitación (mm) Presión (hPa) Tendencia (hPa) Humedad (%)
2020-05-25 23:00:00 22.7 15 Este 26 Este 0 -- -- 60
2020-05-25 22:00:00 23.9 12 Nordeste 24 Este 0 -- -- 58
2020-05-25 21:00:00 25.6 10 Norte 28 Norte 0 -- -- 53
2020-05-25 20:00:00 27.2 4 Norte 21 Norte 0 -- -- 45
2020-05-25 19:00:00 29.6 5 Nordeste 16 Sur 0 -- -- 39
2020-05-25 18:00:00 30.7 8 Sudoeste 21 Sudoeste 0 -- -- 30
2020-05-25 17:00:00 32.4 9 Sur 21 Sur 0 -- -- 30
2020-05-25 16:00:00 31.8 7 Sur 19 Sur 0 -- -- 32
2020-05-25 15:00:00 30.9 10 Sudeste 20 Sudeste 0 -- -- 33
2020-05-25 14:00:00 30.7 10 Sur 22 Este 0 -- -- 33
2020-05-25 13:00:00 29.5 9 Sur 25 Sur 0 -- -- 35
2020-05-25 12:00:00 28.5 11 Sur 22 Sur 0 -- -- 37
2020-05-25 11:00:00 26.7 9 Sur 17 Sur 0 -- -- 43
2020-05-25 10:00:00 24.5 7 Sudoeste 13 Sudoeste 0 -- -- 45
2020-05-25 09:00:00 21.5 4 Sudoeste 9 Sur 0 -- -- 50
2020-05-25 08:00:00 17.4 4 Sur 10 Sur 0 -- -- 60
2020-05-25 07:00:00 17 3 Sur 6 Sudoeste 0 -- -- 57
2020-05-25 06:00:00 16.9 4 Sudoeste 9 Sur 0 -- -- 57
2020-05-25 05:00:00 18.4 3 Sudoeste 9 Sur 0 -- -- 49
2020-05-25 04:00:00 19.6 4 Sur 14 Sur 0 -- -- 43
2020-05-25 03:00:00 20.9 7 Sur 21 Sur 0 -- -- 38
2020-05-25 02:00:00 21.1 8 Sur 14 Sur 0 -- -- 39
2020-05-25 01:00:00 21.7 6 Oeste 14 Sudoeste 0 -- -- 42
2020-05-25 00:00:00 24.5 8 Sur 16 Sur 0 -- -- 36
2020-05-24 23:00:00 25.5 6 Sudoeste 15 Sur 0 -- -- 34
2020-05-24 22:00:00 26.4 9 Sudoeste 15 Sudoeste 0 -- -- 32
2020-05-24 21:00:00 28.3 11 Sudoeste 24 Sudoeste 0 -- -- 30
2020-05-24 20:00:00 30 16 Sudoeste 27 Sudoeste 0 -- -- 27
2020-05-24 19:00:00 32.4 14 Sur 25 Sur 0 -- -- 26
2020-05-24 18:00:00 32.3 11 Sudoeste 23 Sur 0 -- -- 29
2020-05-24 17:00:00 33.2 11 Sur 26 Sur 0 -- -- 27
2020-05-24 16:00:00 32.3 12 Sur 24 Sur 0 -- -- 29
2020-05-24 15:00:00 31.7 10 Sur 26 Sur 0 -- -- 30
2020-05-24 14:00:00 31.2 14 Sudoeste 28 Sudoeste 0 -- -- 28
2020-05-24 13:00:00 30.2 14 Sur 27 Sur 0 -- -- 30
2020-05-24 12:00:00 29.8 9 Sur 18 Sudeste 0 -- -- 42
2020-05-24 11:00:00 28.1 10 Sur 17 Sur 0 -- -- 46
2020-05-24 10:00:00 25.8 5 Sudeste 12 Sudeste 0 -- -- 52
2020-05-24 09:00:00 22.4 4 Este 6 Este 0 -- -- 63
2020-05-24 08:00:00 16.6 4 Oeste 4 Oeste 0 -- -- 83
2020-05-24 07:00:00 16.3 0 Calma -- -- 0 -- -- 80
2020-05-24 06:00:00 17 0 Calma 2 Oeste 0 -- -- 76
2020-05-24 05:00:00 17.8 0 Calma 5 Noroeste 0 -- -- 72
2020-05-24 04:00:00 18.2 0 Calma 6 Este 0 -- -- 71
2020-05-24 03:00:00 18.5 3 Noroeste 10 Noroeste 0 -- -- 70
2020-05-24 02:00:00 19 10 Noroeste 14 Noroeste 0 -- -- 68
2020-05-24 01:00:00 19.8 13 Noroeste 14 Noroeste 0 -- -- 64
2020-05-24 00:00:00 20.9 9 Noroeste 14 Noroeste 0 -- -- 60
2020-05-23 23:00:00 22.4 10 Norte 12 Norte 0 -- -- 53
2020-05-23 22:00:00 24.9 10 Norte 21 Norte 0 -- -- 44
2020-05-23 21:00:00 29.2 17 Norte 27 Norte 0 -- -- 30
2020-05-23 20:00:00 32 15 Norte 26 Noroeste 0 -- -- 25
2020-05-23 19:00:00 33.3 10 Noroeste 30 Noroeste 0 -- -- 24
2020-05-23 18:00:00 33.4 7 Norte 31 Noroeste 0 -- -- 24
2020-05-23 17:00:00 33.6 7 Norte 21 Norte 0 -- -- 25
2020-05-23 16:00:00 33.7 10 Oeste 26 Oeste 0 -- -- 25
2020-05-23 15:00:00 32.5 6 Norte 21 Este 0 -- -- 27
2020-05-23 14:00:00 31.5 8 Sudeste 18 Sudeste 0 -- -- 29
2020-05-23 13:00:00 30.8 6 Sudeste 14 Sudeste 0 -- -- 33
2020-05-23 12:00:00 29.6 6 Este 13 Este 0 -- -- 35
2020-05-23 11:00:00 27.6 4 Sudeste 9 Este 0 -- -- 45
2020-05-23 10:00:00 24.9 2 Nordeste 8 Noroeste 0 -- -- 52
2020-05-23 09:00:00 20.2 3 Noroeste 5 Oeste 0 -- -- 66
2020-05-23 08:00:00 14.8 0 Calma 3 Sudeste 0 -- -- 81
2020-05-23 07:00:00 14.6 0 Calma 4 Oeste 0 -- -- 80
2020-05-23 06:00:00 15.3 0 Calma 5 Sudoeste 0 -- -- 76
2020-05-23 05:00:00 15.9 4 Oeste 10 Noroeste 0 -- -- 74
2020-05-23 04:00:00 18 3 Noroeste 9 Noroeste 0 -- -- 62
2020-05-23 03:00:00 17.5 6 Oeste 13 Noroeste 0 -- -- 68
2020-05-23 02:00:00 19 10 Noroeste 16 Noroeste 0 -- -- 63
2020-05-23 01:00:00 20.4 14 Noroeste 17 Noroeste 0 -- -- 59
2020-05-23 00:00:00 20.9 10 Noroeste 17 Noroeste 0 -- -- 56
2020-05-22 23:00:00 22.2 14 Noroeste 18 Noroeste 0 -- -- 39
2020-05-22 22:00:00 24.1 10 Sudoeste 20 Sudoeste 0 -- -- 38
2020-05-22 21:00:00 28.8 10 Sudoeste 19 Sudoeste 0 -- -- 32
2020-05-22 20:00:00 31.2 9 Sur 19 Sur 0 -- -- 27
2020-05-22 19:00:00 32 13 Sudoeste 21 Sur 0 -- -- 27
2020-05-22 18:00:00 32.6 10 Sur 22 Sudeste 0 -- -- 25
2020-05-22 17:00:00 32.3 7 Sur 24 Sudoeste 0 -- -- 25
2020-05-22 16:00:00 32.2 4 Norte 17 Sudeste 0 -- -- 29
2020-05-22 15:00:00 31.4 8 Sudeste 19 Este 0 -- -- 28
2020-05-22 14:00:00 30.7 9 Noroeste 17 Nordeste 0 -- -- 31
2020-05-22 13:00:00 29.6 6 Nordeste 16 Nordeste 0 -- -- 35
2020-05-22 12:00:00 28.3 8 Nordeste 17 Nordeste 0 -- -- 38
2020-05-22 11:00:00 26.6 5 Nordeste 12 Nordeste 0 -- -- 43
2020-05-22 10:00:00 24.3 4 Nordeste 8 Nordeste 0 -- -- 47
2020-05-22 09:00:00 20 3 Noroeste 6 Norte 0 -- -- 60
2020-05-22 08:00:00 15 0 Calma 2 Norte 0 -- -- 79
2020-05-22 07:00:00 15.2 0 Calma 3 Sudeste 0 -- -- 73
2020-05-22 06:00:00 15.5 0 Calma 4 Sudoeste 0 -- -- 70
2020-05-22 05:00:00 16.8 0 Calma 5 Noroeste 0 -- -- 65
2020-05-22 04:00:00 17.3 2 Noroeste 9 Noroeste 0 -- -- 59
2020-05-22 03:00:00 17.2 0 Calma 13 Noroeste 0 -- -- 61
2020-05-22 02:00:00 17.4 8 Noroeste 13 Noroeste 0 -- -- 64
2020-05-22 01:00:00 18.3 11 Noroeste 12 Noroeste 0 -- -- 62
2020-05-22 00:00:00 20 7 Noroeste 10 Noroeste 0 -- -- 58
2020-05-21 23:00:00 21.9 8 Noroeste 16 Noroeste 0 -- -- 53
2020-05-21 22:00:00 24 10 Noroeste 25 Norte 0 -- -- 48
2020-05-21 21:00:00 28.7 10 Noroeste 21 Oeste 0 -- -- 39
2020-05-21 20:00:00 31 12 Oeste 22 Sudoeste 0 -- -- 31
2020-05-21 19:00:00 31.3 12 Sudoeste 22 Oeste 0 -- -- 29
2020-05-21 18:00:00 30.8 8 Sur 18 Sudeste 0 -- -- 29
2020-05-21 17:00:00 31.7 7 Sur 19 Sudoeste 0 -- -- 28
2020-05-21 16:00:00 31.7 12 Oeste 21 Sudoeste 0 -- -- 29
2020-05-21 15:00:00 30.9 7 Norte 20 Sudeste 0 -- -- 32
2020-05-21 14:00:00 29.9 6 Oeste 17 Este 0 -- -- 34
2020-05-21 13:00:00 29.2 6 Este 20 Este 0 -- -- 36
2020-05-21 12:00:00 27.8 6 Nordeste 15 Nordeste 0 -- -- 42
2020-05-21 11:00:00 25.9 6 Nordeste 12 Nordeste 0 -- -- 47
2020-05-21 10:00:00 24.1 5 Nordeste 10 Este 0 -- -- 56
2020-05-21 09:00:00 19.1 0 Calma 3 Sudeste 0 -- -- 69
2020-05-21 08:00:00 14.1 0 Calma 2 Este 0 -- -- 88
2020-05-21 07:00:00 13.6 0 Calma 3 Oeste 0 -- -- 88
2020-05-21 06:00:00 14.3 3 Sudoeste 4 Oeste 0 -- -- 83
2020-05-21 05:00:00 15.8 2 Oeste 6 Noroeste 0 -- -- 78
2020-05-21 04:00:00 16.1 0 Calma 8 Noroeste 0 -- -- 77
2020-05-21 03:00:00 16.2 4 Noroeste 12 Noroeste 0 -- -- 76
2020-05-21 02:00:00 16.4 9 Noroeste 11 Noroeste 0 -- -- 74
2020-05-21 01:00:00 17.6 7 Noroeste 12 Noroeste 0 -- -- 69
2020-05-21 00:00:00 19.9 8 Noroeste 10 Noroeste 0 -- -- 58
2020-05-20 23:00:00 20.5 2 Noroeste 10 Norte 0 -- -- 53
2020-05-20 22:00:00 22.6 9 Norte 13 Norte 0 -- -- 47
2020-05-20 21:00:00 26.8 10 Norte 18 Norte 0 -- -- 35
2020-05-20 20:00:00 29.2 12 Norte 21 Norte 0 -- -- 30
2020-05-20 19:00:00 30.6 11 Noroeste 24 Oeste 0 -- -- 29
2020-05-20 18:00:00 30.1 3 Noroeste 23 Noroeste 0 -- -- 30
2020-05-20 17:00:00 29.7 13 Sudoeste 21 Oeste 0 -- -- 32
2020-05-20 16:00:00 30.7 12 Sudoeste 22 Sudoeste 0 -- -- 29
2020-05-20 15:00:00 30.1 10 Oeste 21 Sudoeste 0 -- -- 31
2020-05-20 14:00:00 29 5 Sur 17 Este 0 -- -- 34
2020-05-20 13:00:00 28.4 7 Sur 14 Este 0 -- -- 34
2020-05-20 12:00:00 27.4 5 Este 13 Este 0 -- -- 39
2020-05-20 11:00:00 25.3 3 Noroeste 9 Este 0 -- -- 43
2020-05-20 10:00:00 23 2 Este 5 Sudeste 0 -- -- 53
2020-05-20 09:00:00 18.7 0 Calma 3 Este 0 -- -- 69
2020-05-20 08:00:00 13.1 0 Calma 0 Calma 0 -- -- 86
2020-05-20 07:00:00 12.4 0 Calma 3 Sur 0 -- -- 84
2020-05-20 06:00:00 12.6 0 Calma 4 Sudoeste 0 -- -- 85
2020-05-20 05:00:00 13.3 0 Calma 2 Oeste 0 -- -- 85
2020-05-20 04:00:00 13.9 0 Calma 2 Oeste 0 -- -- 85
2020-05-20 03:00:00 14.5 2 Sudoeste 3 Oeste 0 -- -- 82
2020-05-20 02:00:00 15.4 0 Calma 3 Sur 0 -- -- 76
2020-05-20 01:00:00 16.1 3 Oeste 6 Noroeste 0 -- -- 75
2020-05-20 00:00:00 17.2 3 Oeste 4 Oeste 0 -- -- 70
2020-05-19 23:00:00 19.9 0 Calma 9 Nordeste 0 -- -- 63
2020-05-19 22:00:00 22.3 0 Calma 14 Norte 0 -- -- 43
2020-05-19 21:00:00 26 10 Norte 17 Norte 0 -- -- 37
2020-05-19 20:00:00 28.7 8 Norte 16 Noroeste 0 -- -- 31
2020-05-19 19:00:00 29.4 8 Oeste 14 Noroeste 0 -- -- 28
2020-05-19 18:00:00 28.8 2 Nordeste 18 Norte 0 -- -- 31
2020-05-19 17:00:00 28.9 7 Sur 19 Sudoeste 0 -- -- 31
2020-05-19 16:00:00 28.9 4 Sudeste 17 Sudeste 0 -- -- 31
2020-05-19 15:00:00 28 5 Sudeste 16 Sur 0 -- -- 31
2020-05-19 14:00:00 27.3 6 Este 14 Nordeste 0 -- -- 34
2020-05-19 13:00:00 26.6 3 Sudoeste 16 Sudoeste 0 -- -- 35
2020-05-19 12:00:00 25.9 8 Sudeste 14 Este 0 -- -- 36
2020-05-19 11:00:00 24.4 5 Nordeste 13 Noroeste 0 -- -- 40
2020-05-19 10:00:00 20.6 2 Sudoeste 5 Sudeste 0 -- -- 54
2020-05-19 09:00:00 16.3 3 Sur 9 Sur 0 -- -- 72
2020-05-19 08:00:00 10.9 0 Calma 4 Sudoeste 0 -- -- 91
2020-05-19 07:00:00 10.8 0 Calma 4 Sur 0 -- -- 89
2020-05-19 06:00:00 11.3 0 Calma 3 Sudoeste 0 -- -- 88
2020-05-19 05:00:00 12.5 0 Calma 6 Sur 0 -- -- 82
2020-05-19 04:00:00 12.7 0 Calma 5 Sur 0 -- -- 81
2020-05-19 03:00:00 12.9 0 Calma 3 Sur 0 -- -- 82
2020-05-19 02:00:00 13.7 0 Calma 0 Calma 0 -- -- 82
2020-05-19 01:00:00 14.7 0 Calma 4 Oeste 0 -- -- 77
2020-05-19 00:00:00 15.9 0 Calma 2 Este 0 -- -- 67
2020-05-18 23:00:00 17.1 3 Norte 8 Noroeste 0 -- -- 64
2020-05-18 22:00:00 18.7 7 Norte 12 Norte 0 -- -- 57
2020-05-18 21:00:00 23.3 9 Norte 21 Norte 0 -- -- 43
2020-05-18 20:00:00 25.8 13 Norte 22 Norte 0 -- -- 34
2020-05-18 19:00:00 27.2 8 Noroeste 22 Oeste 0 -- -- 31
2020-05-18 18:00:00 27.3 7 Oeste 21 Sudoeste 0 -- -- 28
2020-05-18 17:00:00 27.1 8 Oeste 20 Norte 0 -- -- 32
2020-05-18 16:00:00 26.2 10 Sudoeste 17 Sudoeste 0 -- -- 35
2020-05-18 15:00:00 25.2 6 Sudoeste 15 Sudeste 0 -- -- 38
2020-05-18 14:00:00 24.1 9 Sudeste 16 Sur 0 -- -- 41
2020-05-18 13:00:00 23.5 5 Nordeste 13 Norte 0 -- -- 42
2020-05-18 12:00:00 22.6 8 Noroeste 17 Norte 0 -- -- 48
2020-05-18 11:00:00 20.4 4 Sudeste 11 Este 0 -- -- 56
2020-05-18 10:00:00 18 3 Este 7 Sudeste 0 -- -- 72
2020-05-18 09:00:00 15 3 Sur 5 Sur 0 -- -- 87
2020-05-18 08:00:00 11.3 2 Sur 7 Sudoeste 0 -- -- 97
2020-05-18 07:00:00 10.9 3 Sudoeste 6 Sudoeste 0 -- -- 96
2020-05-18 06:00:00 10.5 3 Sur 6 Sur 0 -- -- 95
2020-05-18 05:00:00 11.2 0 Calma 3 Sudoeste 0 -- -- 92
2020-05-18 04:00:00 12.1 2 Sur 4 Sudoeste 0 -- -- 92
2020-05-18 03:00:00 12.7 0 Calma 6 Sudoeste 0 -- -- 88
2020-05-18 02:00:00 14.2 4 Sudoeste 12 Sudoeste 0 -- -- 84
2020-05-18 01:00:00 14.5 4 Sudoeste 9 Sudoeste 0 -- -- 86
2020-05-18 00:00:00 15.8 0 Calma 8 Sur 0 -- -- 77
2020-05-17 23:00:00 17.5 5 Sur 13 Sur 0 -- -- 70
2020-05-17 22:00:00 19 11 Sur 15 Sur 0 -- -- 65
2020-05-17 21:00:00 21.2 7 Norte 12 Este 0 -- -- 51
2020-05-17 20:00:00 22.1 10 Este 20 Norte 0 -- -- 44
2020-05-17 19:00:00 23.5 9 Nordeste 24 Este 0 -- -- 42
2020-05-17 18:00:00 22.2 8 Nordeste 18 Norte 0 -- -- 44
2020-05-17 17:00:00 21.7 4 Nordeste 12 Nordeste 0 -- -- 44
2020-05-17 16:00:00 21.3 5 Nordeste 21 Este 0 -- -- 48
2020-05-17 15:00:00 21.4 10 Nordeste 21 Nordeste 0 -- -- 52
2020-05-17 14:00:00 21.2 3 Nordeste 17 Este 0 -- -- 49
2020-05-17 13:00:00 20.7 6 Nordeste 15 Este 0 -- -- 53
2020-05-17 12:00:00 19.2 6 Este 15 Este 0 -- -- 66
2020-05-17 11:00:00 17.7 9 Este 14 Este 0 -- -- 71
2020-05-17 10:00:00 15.8 3 Este 10 Este 0 -- -- 83
2020-05-17 09:00:00 12.7 2 Sudeste 4 Este 0 -- -- 98
2020-05-17 08:00:00 9 0 Calma 2 Nordeste 0 -- -- 99
2020-05-17 07:00:00 8.6 0 Calma 2 Oeste 0 -- -- 97
2020-05-17 06:00:00 9.6 0 Calma 3 Sudoeste 0 -- -- 97
2020-05-17 05:00:00 10.4 0 Calma 8 Sudoeste 0 -- -- 97
2020-05-17 04:00:00 10.5 3 Sudoeste 6 Sudoeste 0 -- -- 96
2020-05-17 03:00:00 11.1 3 Sur 4 Sur 0 -- -- 96
2020-05-17 02:00:00 11.8 3 Sudoeste 5 Sudoeste 0 -- -- 94
2020-05-17 01:00:00 12.6 3 Oeste 10 Este 0 -- -- 92
2020-05-17 00:00:00 12.9 4 Sur 19 Sur 0 -- -- 92
2020-05-16 23:00:00 13 10 Sur 23 Este 2.8 -- -- 91
2020-05-16 22:00:00 13 21 Este 46 Este 16.2 -- -- 91
2020-05-16 21:00:00 15.9 9 Sur 17 Sur 0 -- -- 77
2020-05-16 20:00:00 16.3 10 Sur 30 Este 0.6 -- -- 71
2020-05-16 19:00:00 18.7 13 Este 28 Este 0.4 -- -- 65
2020-05-16 18:00:00 21.1 5 Nordeste 21 Norte 0 -- -- 48
2020-05-16 17:00:00 20.9 10 Norte 19 Norte 0 -- -- 48
2020-05-16 16:00:00 22.4 10 Norte 18 Norte 0 -- -- 42
2020-05-16 15:00:00 20.4 9 Nordeste 19 Este 0 -- -- 49
2020-05-16 14:00:00 19.6 5 Nordeste 18 Nordeste 0 -- -- 54
2020-05-16 13:00:00 19.7 8 Norte 16 Norte 0 -- -- 58
2020-05-16 12:00:00 17.4 6 Nordeste 16 Nordeste 0 -- -- 63
2020-05-16 11:00:00 14.6 5 Nordeste 14 Nordeste 0 -- -- 77
2020-05-16 10:00:00 12.5 7 Nordeste 15 Noroeste 0 -- -- 95
2020-05-16 09:00:00 9.9 6 Norte 11 Noroeste 0 -- -- 99
2020-05-16 08:00:00 6.7 0 Calma 5 Oeste 0 -- -- 98
2020-05-16 07:00:00 7.4 0 Calma 4 Noroeste 0 -- -- 98
2020-05-16 06:00:00 7.3 2 Oeste 5 Norte 0 -- -- 97
2020-05-16 05:00:00 7.8 3 Noroeste 9 Noroeste 0 -- -- 97
2020-05-16 04:00:00 8 3 Oeste 6 Noroeste 0 -- -- 95
2020-05-16 03:00:00 8.6 3 Noroeste 8 Oeste 0 -- -- 95
2020-05-16 02:00:00 9.5 6 Noroeste 7 Noroeste 0 -- -- 95
2020-05-16 01:00:00 9.9 4 Noroeste 5 Noroeste 0 -- -- 94
2020-05-16 00:00:00 10.3 0 Calma 7 Noroeste 0 -- -- 94
2020-05-15 23:00:00 10.6 3 Noroeste 9 Noroeste 0 -- -- 92
2020-05-15 22:00:00 11.9 6 Noroeste 9 Noroeste 0 -- -- 85
2020-05-15 21:00:00 14.5 6 Oeste 13 Oeste 0 -- -- 73
2020-05-15 20:00:00 16.1 5 Noroeste 10 Noroeste 0 -- -- 65
2020-05-15 19:00:00 14.9 6 Sudoeste 14 Sudoeste 0 -- -- 69
2020-05-15 18:00:00 14.8 6 Sudoeste 24 Este 0 -- -- 69
2020-05-15 17:00:00 15.7 10 Nordeste 27 Norte 0 -- -- 66
2020-05-15 16:00:00 17.6 15 Norte 24 Nordeste 0 -- -- 55
2020-05-15 15:00:00 18.3 9 Nordeste 17 Norte 0 -- -- 50
2020-05-15 14:00:00 18.5 7 Nordeste 17 Nordeste 0 -- -- 55
2020-05-15 13:00:00 17.2 6 Nordeste 16 Nordeste 0 -- -- 55
2020-05-15 12:00:00 15.5 8 Nordeste 23 Noroeste 0 -- -- 64
2020-05-15 11:00:00 14.4 3 Sudoeste 12 Oeste 0 -- -- 77
2020-05-15 10:00:00 12.8 3 Sudoeste 5 Sudoeste 0 -- -- 85
2020-05-15 09:00:00 10.6 2 Sudeste 6 Este 0 -- -- 96
2020-05-15 08:00:00 8.4 4 Este 7 Sudeste 0 -- -- 98
2020-05-15 07:00:00 7.2 0 Calma 4 Oeste 0 -- -- 96
2020-05-15 06:00:00 8.3 0 Calma 8 Este 0 -- -- 93
2020-05-15 05:00:00 9.2 5 Este 8 Sudeste 0 -- -- 94
2020-05-15 04:00:00 10 3 Sudeste 7 Sudeste 0 -- -- 93
2020-05-15 03:00:00 10.2 2 Sudeste 11 Sur 0 -- -- 95
2020-05-15 02:00:00 9.5 5 Sudeste 9 Sur 0 -- -- 95
2020-05-15 01:00:00 9.6 5 Sur 15 Sur 0 -- -- 92
2020-05-15 00:00:00 9.8 11 Sur 17 Sur 0 -- -- 92
2020-05-14 23:00:00 10.6 6 Sur 25 Sur 0 -- -- 89
2020-05-14 22:00:00 11.2 11 Sur 21 Sur 0 -- -- 89
2020-05-14 21:00:00 12 12 Sur 30 Sur 0 -- -- 82
2020-05-14 20:00:00 13.3 16 Sur 37 Sur 0 -- -- 76
2020-05-14 19:00:00 13.4 18 Sur 40 Sur 0.2 -- -- 79
2020-05-14 18:00:00 13.6 17 Sur 42 Sur 0 -- -- 76
2020-05-14 17:00:00 13.1 21 Sur 39 Sur 0 -- -- 77
2020-05-14 16:00:00 14.1 14 Sur 45 Sudoeste 0 -- -- 74
2020-05-14 15:00:00 14 15 Sur 33 Sur 0 -- -- 71
2020-05-14 14:00:00 12.9 15 Sur 34 Sur 0 -- -- 80
2020-05-14 13:00:00 12.3 19 Sur 38 Sudeste 0 -- -- 81
2020-05-14 12:00:00 11 18 Sur 32 Sur 0 -- -- 87
2020-05-14 11:00:00 11.6 21 Sur 35 Sudeste 0 -- -- 80
2020-05-14 10:00:00 10.9 10 Sudeste 21 Sudeste 0 -- -- 90
2020-05-14 09:00:00 10 10 Sudeste 16 Sudeste 0.2 -- -- 92
2020-05-14 08:00:00 8.5 6 Sur 15 Sur 0 -- -- 94
2020-05-14 07:00:00 8.5 9 Sur 17 Sur 0 -- -- 95
2020-05-14 06:00:00 8.4 5 Sur 11 Sur 0 -- -- 95
2020-05-14 05:00:00 8.4 4 Sudeste 15 Sudoeste 0 -- -- 94
2020-05-14 04:00:00 8.6 10 Sur 24 Sudoeste 0 -- -- 93
2020-05-14 03:00:00 8.9 13 Sur 26 Sudoeste 0 -- -- 92
2020-05-14 02:00:00 9.2 13 Sur 24 Sudoeste 0 -- -- 92
2020-05-14 01:00:00 9.9 14 Sur 27 Sudoeste 0 -- -- 91
2020-05-14 00:00:00 10.5 14 Sur 30 Sur 0 -- -- 88
2020-05-13 23:00:00 11.1 9 Sur 20 Sur 0 -- -- 90
2020-05-13 22:00:00 12.2 8 Sur 24 Sudoeste 0 -- -- 91
2020-05-13 21:00:00 13.4 14 Sudoeste 32 Sur 0.6 -- -- 87
2020-05-13 20:00:00 16.5 9 Sur 18 Sudoeste 0 -- -- 67
2020-05-13 19:00:00 16.1 9 Sudoeste 31 Sudeste 0 -- -- 71
2020-05-13 18:00:00 18.1 16 Sur 29 Sur 0 -- -- 56
2020-05-13 17:00:00 17 19 Sur 35 Sudeste 0 -- -- 60
2020-05-13 16:00:00 16.7 19 Sudeste 33 Sudeste 0 -- -- 63
2020-05-13 15:00:00 17 15 Sur 30 Sudeste 0 -- -- 59
2020-05-13 14:00:00 16.3 17 Sur 28 Sudoeste 0 -- -- 62
2020-05-13 13:00:00 16.4 15 Sudeste 30 Sudeste 0 -- -- 65
2020-05-13 12:00:00 15.9 15 Sur 29 Sur 0 -- -- 63
2020-05-13 11:00:00 14.2 12 Sur 25 Sur 0 -- -- 74
2020-05-13 10:00:00 13 15 Sur 24 Sur 0 -- -- 75
2020-05-13 09:00:00 11.2 10 Sur 21 Sur 0 -- -- 93
2020-05-13 08:00:00 9.7 2 Sudeste 10 Sur 0 -- -- 95
2020-05-13 07:00:00 9.8 6 Sur 11 Sur 0 -- -- 95
2020-05-13 06:00:00 10.1 5 Sur 11 Sudoeste 0 -- -- 94
2020-05-13 05:00:00 10.3 4 Sur 14 Sudoeste 0 -- -- 94
2020-05-13 04:00:00 10.5 7 Sur 15 Sur 0 -- -- 94
2020-05-13 03:00:00 10.3 9 Sur 17 Sur 0 -- -- 96
2020-05-13 02:00:00 10.5 8 Sudoeste 18 Sur 0 -- -- 96
2020-05-13 01:00:00 10.2 8 Sur 16 Sur 0 -- -- 95
2020-05-13 00:00:00 10.8 7 Sur 13 Sur 0 -- -- 94
2020-05-12 23:00:00 11.2 4 Sur 10 Sur 0 -- -- 95
2020-05-12 22:00:00 10.8 3 Sudoeste 14 Sudoeste 0.4 -- -- 94
2020-05-12 21:00:00 10.9 5 Noroeste 14 Noroeste 3.2 -- -- 93
2020-05-12 20:00:00 12.3 5 Sudoeste 10 Sudoeste 0 -- -- 90
2020-05-12 19:00:00 11.5 3 Sudoeste 36 Sudoeste 2.2 -- -- 93
2020-05-12 18:00:00 15.9 4 Norte 16 Oeste 0 -- -- 63
2020-05-12 17:00:00 15.5 8 Oeste 23 Sudoeste 0 -- -- 65
2020-05-12 16:00:00 13.5 9 Sur 23 Sudoeste 0 -- -- 72
2020-05-12 15:00:00 13 11 Sur 22 Sur 0 -- -- 77
2020-05-12 14:00:00 12.1 14 Sur 26 Sudoeste 0 -- -- 82
2020-05-12 13:00:00 12.1 14 Sur 34 Sur 0 -- -- 83
2020-05-12 12:00:00 12.8 14 Sur 33 Sur 0 -- -- 79
2020-05-12 11:00:00 12.8 11 Sur 23 Sur 0 -- -- 90
2020-05-12 10:00:00 12.2 7 Sur 22 Sudeste 0 -- -- 93
2020-05-12 09:00:00 11.9 9 Sudeste 15 Sudeste 0 -- -- 93
2020-05-12 08:00:00 10.8 6 Sudeste 10 Sudeste 0 -- -- 97
2020-05-12 07:00:00 10.9 4 Este 13 Sudeste 0 -- -- 94
2020-05-12 06:00:00 11.1 3 Sudeste 9 Sur 0 -- -- 96
2020-05-12 05:00:00 11 2 Nordeste 8 Este 0 -- -- 93
2020-05-12 04:00:00 11.6 3 Noroeste 10 Sur 0 -- -- 93
2020-05-12 03:00:00 11.5 6 Sur 11 Sur 0 -- -- 91
2020-05-12 02:00:00 12.4 3 Sudeste 15 Sur 0 -- -- 89
2020-05-12 01:00:00 13.1 8 Sur 14 Sudoeste 0 -- -- 85
2020-05-12 00:00:00 13.3 5 Sudoeste 14 Sudoeste 0 -- -- 85
2020-05-11 23:00:00 14.1 6 Sur 16 Sur 0 -- -- 81
2020-05-11 22:00:00 14.9 11 Sudoeste 22 Sudoeste 0 -- -- 76
2020-05-11 21:00:00 16.1 13 Sur 26 Sur 0 -- -- 71
2020-05-11 20:00:00 17.7 16 Sur 33 Sur 0 -- -- 63
2020-05-11 19:00:00 18 20 Sudoeste 36 Sudoeste 0 -- -- 62
2020-05-11 18:00:00 18.7 21 Sudoeste 43 Sudoeste 0 -- -- 60
2020-05-11 17:00:00 19.5 20 Sur 43 Sur 0 -- -- 59
2020-05-11 16:00:00 20 22 Sudoeste 42 Sudoeste 0 -- -- 56
2020-05-11 15:00:00 19.3 19 Sudoeste 38 Sudoeste 0 -- -- 61
2020-05-11 14:00:00 18.8 22 Sudoeste 47 Sudoeste 0 -- -- 57
2020-05-11 13:00:00 18.2 27 Sudoeste 43 Sudoeste 0 -- -- 57
2020-05-11 12:00:00 16.7 23 Sudoeste 35 Sudoeste 0 -- -- 76
2020-05-11 11:00:00 13.8 13 Sudoeste 42 Oeste 4 -- -- 93
2020-05-11 10:00:00 12.4 18 Sudoeste 48 Sudoeste 3.2 -- -- 93
2020-05-11 09:00:00 12.6 10 Sur 25 Sur 0 -- -- 93
2020-05-11 08:00:00 11.7 11 Sur 26 Sur 0 -- -- 94
2020-05-11 07:00:00 11.3 13 Sur 26 Sudoeste 0 -- -- 90
2020-05-11 06:00:00 11.3 12 Sur 22 Sudoeste 0 -- -- 91
2020-05-11 05:00:00 10.6 6 Sur 15 Sur 0 -- -- 94
2020-05-11 04:00:00 10.6 8 Sur 15 Sur 0 -- -- 92
2020-05-11 03:00:00 11.4 4 Sudeste 25 Oeste 0 -- -- 88
2020-05-11 02:00:00 11.9 14 Oeste 21 Sudoeste 0 -- -- 85
2020-05-11 01:00:00 12.3 13 Oeste 27 Sudoeste 0 -- -- 85
2020-05-11 00:00:00 12.6 15 Sudoeste 30 Oeste 0 -- -- 85
2020-05-10 23:00:00 12.7 12 Oeste 32 Oeste 0 -- -- 88
2020-05-10 22:00:00 13.3 20 Oeste 31 Sudoeste 0 -- -- 85
2020-05-10 21:00:00 13.4 21 Sudoeste 46 Oeste 0 -- -- 83
2020-05-10 20:00:00 14.9 22 Oeste 41 Oeste 0 -- -- 75
2020-05-10 19:00:00 15.6 28 Oeste 41 Sudoeste 0 -- -- 71
2020-05-10 18:00:00 15.1 26 Oeste 51 Oeste 0 -- -- 68
2020-05-10 17:00:00 16.6 13 Oeste 29 Noroeste 0 -- -- 65
2020-05-10 16:00:00 15.6 21 Noroeste 45 Oeste 0 -- -- 67
2020-05-10 15:00:00 18 28 Oeste 45 Oeste 0 -- -- 56
2020-05-10 14:00:00 16.8 24 Oeste 36 Oeste 0 -- -- 61
2020-05-10 13:00:00 15.2 19 Sudoeste 33 Oeste 0 -- -- 74
2020-05-10 12:00:00 13.9 15 Oeste 27 Oeste 0.8 -- -- 80
2020-05-10 11:00:00 12.5 15 Sudoeste 29 Sudoeste 0.2 -- -- 88
2020-05-10 10:00:00 11.2 12 Sudoeste 21 Sudoeste 0.4 -- -- 92
2020-05-10 09:00:00 10.5 7 Sur 19 Sudoeste 0 -- -- 96
2020-05-10 08:00:00 9.8 7 Sudoeste 15 Oeste 0 -- -- 97
2020-05-10 07:00:00 9.2 5 Noroeste 13 Oeste 0.2 -- -- 97
2020-05-10 06:00:00 9.1 6 Oeste 21 Oeste 0 -- -- 95
2020-05-10 05:00:00 10 8 Oeste 15 Oeste 0 -- -- 96
2020-05-10 04:00:00 10.3 11 Oeste 24 Oeste 0 -- -- 95
2020-05-10 03:00:00 11.4 14 Oeste 28 Oeste 0 -- -- 93
2020-05-10 02:00:00 11.8 12 Sudoeste 18 Sudoeste 0.2 -- -- 96
2020-05-10 01:00:00 11.7 13 Sudoeste 23 Oeste 1 -- -- 93
2020-05-10 00:00:00 12.1 5 Sur 12 Sudoeste 0.2 -- -- 95
2020-05-09 23:00:00 12.4 6 Sur 12 Sur 8 -- -- 95
2020-05-09 22:00:00 12.9 10 Sudoeste 25 Sur 0 -- -- 91
2020-05-09 21:00:00 13.1 13 Sur 30 Sur 1.2 -- -- 94
2020-05-09 20:00:00 12.9 15 Sudoeste 48 Sudoeste 3.8 -- -- 93
2020-05-09 19:00:00 15.2 20 Sudoeste 36 Sudoeste 0.2 -- -- 78
2020-05-09 18:00:00 21.1 17 Sudoeste 33 Sudoeste 0 -- -- 44
2020-05-09 17:00:00 21.7 18 Sur 35 Sudoeste 0 -- -- 42
2020-05-09 16:00:00 21.5 16 Sur 35 Sur 0 -- -- 43
2020-05-09 15:00:00 21 19 Sudoeste 42 Sudoeste 0 -- -- 46
2020-05-09 14:00:00 19.6 13 Sur 30 Sudoeste 0 -- -- 51
2020-05-09 13:00:00 18.5 15 Sur 32 Sur 0 -- -- 56
2020-05-09 12:00:00 17.2 13 Sur 28 Sudoeste 0 -- -- 62
2020-05-09 11:00:00 15.7 16 Sudoeste 27 Sudoeste 0 -- -- 61
2020-05-09 10:00:00 13.6 14 Sur 26 Sur 0 -- -- 70
2020-05-09 09:00:00 12.6 12 Sur 19 Sur 0 -- -- 80
2020-05-09 08:00:00 10.9 5 Sur 17 Sur 0 -- -- 88
2020-05-09 07:00:00 10.2 7 Sudoeste 15 Sur 0 -- -- 91
2020-05-09 06:00:00 10.5 6 Sur 12 Sur 0 -- -- 92
2020-05-09 05:00:00 11.7 5 Sur 14 Sur 0 -- -- 84
2020-05-09 04:00:00 12 11 Sudoeste 19 Sudoeste 0 -- -- 86
2020-05-09 03:00:00 12.6 9 Sur 19 Sudoeste 0 -- -- 83
2020-05-09 02:00:00 12.9 12 Sudoeste 17 Sudoeste 0 -- -- 76
2020-05-09 01:00:00 14.6 6 Sur 14 Sur 0 -- -- 69
2020-05-09 00:00:00 15.5 8 Sur 20 Sur 0 -- -- 74
2020-05-08 23:00:00 17.2 11 Sur 20 Sudoeste 0 -- -- 71
2020-05-08 22:00:00 18.8 9 Sur 21 Sudoeste 0 -- -- 64
2020-05-08 21:00:00 20.7 15 Sudoeste 31 Sudoeste 0 -- -- 56
2020-05-08 20:00:00 23.6 21 Sudoeste 27 Sudoeste 0 -- -- 47
2020-05-08 19:00:00 25 16 Sudoeste 27 Sudoeste 0 -- -- 41
2020-05-08 18:00:00 25.5 17 Sudoeste 33 Sudoeste 0 -- -- 38
2020-05-08 17:00:00 26.5 17 Sudoeste 32 Sur 0 -- -- 37
2020-05-08 16:00:00 26.6 11 Sudeste 31 Sudoeste 0 -- -- 36
2020-05-08 15:00:00 25.9 14 Sudoeste 32 Sudoeste 0 -- -- 35
2020-05-08 14:00:00 25.5 13 Sudoeste 28 Sur 0 -- -- 35
2020-05-08 13:00:00 24.4 16 Sur 32 Sudeste 0 -- -- 35
2020-05-08 12:00:00 23.7 20 Sur 31 Sur 0 -- -- 35
2020-05-08 11:00:00 22.4 22 Sur 34 Sur 0 -- -- 37
2020-05-08 10:00:00 20.8 9 Sur 17 Sur 0 -- -- 46
2020-05-08 09:00:00 17.8 2 Este 8 Nordeste 0 -- -- 59
2020-05-08 08:00:00 13.6 4 Nordeste 11 Nordeste 0 -- -- 69
2020-05-08 07:00:00 14.2 6 Sur 12 Sur 0 -- -- 64
2020-05-08 06:00:00 15 3 Nordeste 20 Sur 0 -- -- 62
2020-05-08 05:00:00 15.6 9 Sur 15 Sur 0 -- -- 59
2020-05-08 04:00:00 15.8 5 Sudoeste 14 Este 0 -- -- 61
2020-05-08 03:00:00 17.5 3 Este 18 Sur 0 -- -- 54
2020-05-08 02:00:00 18.5 10 Sur 20 Sur 0 -- -- 50
2020-05-08 01:00:00 18.6 11 Sur 27 Sur 0 -- -- 50
2020-05-08 00:00:00 19.4 13 Sur 20 Sur 0 -- -- 51
2020-05-07 23:00:00 20.5 12 Sur 26 Sur 0 -- -- 48
2020-05-07 22:00:00 21.1 9 Sur 16 Sudeste 0 -- -- 47
2020-05-07 21:00:00 23.3 8 Sur 18 Sudeste 0 -- -- 44
2020-05-07 20:00:00 25 10 Sur 34 Sur 0 -- -- 40
2020-05-07 19:00:00 26.5 15 Sur 33 Sudoeste 0 -- -- 35
2020-05-07 18:00:00 26.9 17 Sur 35 Sur 0 -- -- 32
2020-05-07 17:00:00 27.4 16 Sur 35 Sudoeste 0 -- -- 37
2020-05-07 16:00:00 28.1 18 Sudeste 32 Este 0 -- -- 37
2020-05-07 15:00:00 27.5 12 Sudeste 22 Sur 0 -- -- 34
2020-05-07 14:00:00 26.3 6 Sur 16 Sudeste 0 -- -- 41
2020-05-07 13:00:00 25.3 4 Este 21 Este 0 -- -- 43
2020-05-07 12:00:00 22.3 12 Este 17 Este 0 -- -- 50
2020-05-07 11:00:00 19.1 4 Nordeste 17 Este 0 -- -- 58
2020-05-07 10:00:00 16.2 9 Este 14 Este 0 -- -- 67
2020-05-07 09:00:00 13.2 0 Calma 4 Sudeste 0 -- -- 83
2020-05-07 08:00:00 11.2 0 Calma 3 Sur 0 -- -- 84
2020-05-07 07:00:00 11.4 3 Sur 4 Sur 0 -- -- 82
2020-05-07 06:00:00 11.7 0 Calma 2 Noroeste 0 -- -- 82
2020-05-07 05:00:00 11.8 0 Calma 3 Norte 0 -- -- 79
2020-05-07 04:00:00 12.2 3 Oeste 5 Oeste 0 -- -- 78
2020-05-07 03:00:00 14 3 Nordeste 9 Norte 0 -- -- 68
2020-05-07 02:00:00 14.8 7 Norte 9 Norte 0 -- -- 65
2020-05-07 01:00:00 15 4 Norte 11 Norte 0 -- -- 64
2020-05-07 00:00:00 14.5 7 Noroeste 12 Norte 0 -- -- 68
2020-05-06 23:00:00 14.6 8 Noroeste 12 Norte 0 -- -- 64
2020-05-06 22:00:00 15.8 11 Norte 13 Noroeste 0 -- -- 60
2020-05-06 21:00:00 20 8 Norte 19 Norte 0 -- -- 46
2020-05-06 20:00:00 23.4 11 Norte 20 Norte 0 -- -- 37
2020-05-06 19:00:00 25.1 10 Norte 24 Norte 0 -- -- 35
2020-05-06 18:00:00 25.4 12 Nordeste 24 Norte 0 -- -- 38
2020-05-06 17:00:00 25.8 12 Norte 22 Norte 0 -- -- 34
2020-05-06 16:00:00 24.8 5 Norte 22 Norte 0 -- -- 37
2020-05-06 15:00:00 24.1 9 Nordeste 21 Norte 0 -- -- 39
2020-05-06 14:00:00 23.3 9 Norte 20 Norte 0 -- -- 38
2020-05-06 13:00:00 22.4 7 Nordeste 27 Este 0 -- -- 45
2020-05-06 12:00:00 21.1 9 Norte 20 Norte 0 -- -- 49
2020-05-06 11:00:00 19.2 10 Norte 19 Norte 0 -- -- 58
2020-05-06 10:00:00 17.4 7 Norte 13 Noroeste 0 -- -- 68
2020-05-06 09:00:00 13.8 6 Noroeste 10 Noroeste 0 -- -- 83
2020-05-06 08:00:00 9.9 4 Oeste 5 Oeste 0 -- -- 87
2020-05-06 07:00:00 8.7 0 Calma 12 Noroeste 0 -- -- 89
2020-05-06 06:00:00 8.5 9 Noroeste 10 Noroeste 0 -- -- 85
2020-05-06 05:00:00 10.2 4 Noroeste 6 Noroeste 0 -- -- 78
2020-05-06 04:00:00 10.9 0 Calma 3 Oeste 0 -- -- 73
2020-05-06 03:00:00 11.1 3 Noroeste 8 Noroeste 0 -- -- 71
2020-05-06 02:00:00 10.9 6 Noroeste 9 Noroeste 0 -- -- 72
2020-05-06 01:00:00 11.7 7 Noroeste 11 Noroeste 0 -- -- 68
2020-05-06 00:00:00 12.4 11 Noroeste 13 Noroeste 0 -- -- 65
2020-05-05 23:00:00 14.2 10 Noroeste 18 Norte 0 -- -- 62
2020-05-05 22:00:00 16.7 11 Norte 21 Norte 0 -- -- 51
2020-05-05 21:00:00 20.4 10 Norte 23 Norte 0 -- -- 43
2020-05-05 20:00:00 22.9 15 Norte 26 Norte 0 -- -- 39
2020-05-05 19:00:00 25.3 12 Noroeste 21 Noroeste 0 -- -- 32
2020-05-05 18:00:00 25.8 9 Noroeste 26 Oeste 0 -- -- 32
2020-05-05 17:00:00 25.4 6 Oeste 19 Oeste 0 -- -- 34
2020-05-05 16:00:00 24.4 8 Oeste 22 Sudoeste 0 -- -- 41
2020-05-05 15:00:00 23.2 7 Noroeste 18 Sudeste 0 -- -- 46
2020-05-05 14:00:00 22.6 8 Sudoeste 15 Sudoeste 0 -- -- 48
2020-05-05 13:00:00 21.6 8 Este 16 Sudeste 0 -- -- 52
2020-05-05 12:00:00 20.2 4 Sudeste 14 Nordeste 0 -- -- 56
2020-05-05 11:00:00 18.4 5 Nordeste 12 Este 0 -- -- 64
2020-05-05 10:00:00 16.3 5 Nordeste 11 Este 0 -- -- 72
2020-05-05 09:00:00 14.2 3 Nordeste 8 Noroeste 0 -- -- 80
2020-05-05 08:00:00 11.4 4 Noroeste 8 Noroeste 0 -- -- 96
2020-05-05 07:00:00 10.5 3 Noroeste 4 Noroeste 0 -- -- 90
2020-05-05 06:00:00 11.2 3 Noroeste 4 Oeste 0 -- -- 89
2020-05-05 05:00:00 12.6 0 Calma 5 Norte 0 -- -- 86
2020-05-05 04:00:00 13.7 0 Calma 6 Noroeste 0 -- -- 82
2020-05-05 03:00:00 13.6 0 Calma 10 Noroeste 0 -- -- 82
2020-05-05 02:00:00 13.9 9 Noroeste 12 Norte 0 -- -- 82
2020-05-05 01:00:00 15.7 7 Oeste 15 Oeste 0 -- -- 80
2020-05-05 00:00:00 16.7 4 Sudoeste 14 Sur 0 -- -- 77
2020-05-04 23:00:00 17.9 5 Sur 19 Sudoeste 0 -- -- 69
2020-05-04 22:00:00 19.6 11 Sudoeste 17 Sudoeste 0 -- -- 61
2020-05-04 21:00:00 21.9 9 Sur 26 Sudoeste 0 -- -- 45
2020-05-04 20:00:00 23.8 18 Sudoeste 32 Sudoeste 0 -- -- 35
2020-05-04 19:00:00 26.1 21 Sudoeste 47 Sudoeste 0 -- -- 30
2020-05-04 18:00:00 27.1 24 Sur 40 Sur 0 -- -- 23
2020-05-04 17:00:00 27 27 Sur 49 Sudoeste 0 -- -- 29
2020-05-04 16:00:00 26.8 29 Sur 50 Sudoeste 0 -- -- 39
2020-05-04 15:00:00 27.3 37 Sudoeste 54 Sudoeste 0 -- -- 37
2020-05-04 14:00:00 28.3 34 Sur 57 Sur 0 -- -- 33
2020-05-04 13:00:00 28.4 25 Sur 45 Sudoeste 0 -- -- 31
2020-05-04 12:00:00 27.5 27 Sur 50 Sur 0 -- -- 31
2020-05-04 11:00:00 26.9 19 Sudeste 35 Sudeste 0 -- -- 33
2020-05-04 10:00:00 23.3 14 Sudeste 30 Sudeste 0 -- -- 41
2020-05-04 09:00:00 22.6 20 Sudeste 33 Sudeste 0 -- -- 37
2020-05-04 08:00:00 20.8 13 Sudeste 21 Sur 0 -- -- 46
2020-05-04 07:00:00 20.1 15 Sur 28 Sur 0 -- -- 50
2020-05-04 06:00:00 19.5 9 Sur 22 Sur 0 -- -- 50
2020-05-04 05:00:00 19.9 14 Sur 21 Sur 0 -- -- 46
2020-05-04 04:00:00 20.5 15 Sur 24 Sur 0 -- -- 46
2020-05-04 03:00:00 20.2 9 Sur 16 Sur 0 -- -- 48
2020-05-04 02:00:00 19.7 8 Sur 17 Sur 0 -- -- 54
2020-05-04 01:00:00 19.7 11 Sur 16 Sur 0 -- -- 57
2020-05-04 00:00:00 18.8 3 Sudeste 9 Este 0 -- -- 65
2020-05-03 23:00:00 20.5 3 Este 9 Sudeste 0 -- -- 64
2020-05-03 22:00:00 23.1 4 Este 7 Este 0 -- -- 52
2020-05-03 21:00:00 26.5 0 Calma 10 Sur 0 -- -- 45
2020-05-03 20:00:00 29.1 8 Sur 13 Sur 0 -- -- 35
2020-05-03 19:00:00 29.9 9 Sur 22 Sudeste 0 -- -- 30
2020-05-03 18:00:00 30.4 14 Sur 27 Sur 0 -- -- 28
2020-05-03 17:00:00 30.8 14 Sur 26 Sur 0 -- -- 26
2020-05-03 16:00:00 30.7 13 Sur 27 Sudeste 0 -- -- 24
2020-05-03 15:00:00 29.5 14 Sudeste 27 Sudeste 0 -- -- 31
2020-05-03 14:00:00 28.8 9 Sur 27 Sudeste 0 -- -- 31
2020-05-03 13:00:00 27.6 13 Sudeste 27 Sudeste 0 -- -- 39
2020-05-03 12:00:00 26.7 14 Sudeste 25 Sudeste 0 -- -- 41
2020-05-03 11:00:00 24 7 Este 16 Este 0 -- -- 54
2020-05-03 10:00:00 20.8 0 Calma 4 Nordeste 0 -- -- 72
2020-05-03 09:00:00 15.7 0 Calma 3 Oeste 0 -- -- 90
2020-05-03 08:00:00 11.6 2 Sur 3 Sudeste 0 -- -- 92
2020-05-03 07:00:00 11.5 0 Calma 4 Este 0 -- -- 93
2020-05-03 06:00:00 12.1 0 Calma 3 Noroeste 0 -- -- 90
2020-05-03 05:00:00 12.6 2 Oeste 4 Oeste 0 -- -- 91
2020-05-03 04:00:00 13.3 0 Calma 5 Oeste 0 -- -- 90
2020-05-03 03:00:00 13.5 3 Oeste 4 Noroeste 0 -- -- 88
2020-05-03 02:00:00 14.8 0 Calma 3 Oeste 0 -- -- 85
2020-05-03 01:00:00 15.8 0 Calma 4 Sudoeste 0 -- -- 82
2020-05-03 00:00:00 17.6 2 Sur 5 Norte 0 -- -- 76
2020-05-02 23:00:00 19.1 0 Calma 12 Norte 0 -- -- 70
2020-05-02 22:00:00 20.8 5 Nordeste 13 Norte 0 -- -- 63
2020-05-02 21:00:00 24.1 9 Nordeste 15 Oeste 0 -- -- 53
2020-05-02 20:00:00 26.7 9 Oeste 18 Oeste 0 -- -- 39
2020-05-02 19:00:00 28.2 7 Oeste 23 Oeste 0 -- -- 37
2020-05-02 18:00:00 28.3 13 Oeste 24 Oeste 0 -- -- 38
2020-05-02 17:00:00 28.4 13 Oeste 22 Oeste 0 -- -- 35
2020-05-02 16:00:00 27.9 9 Sudoeste 21 Oeste 0 -- -- 34
2020-05-02 15:00:00 26.6 5 Sudoeste 18 Oeste 0 -- -- 50
2020-05-02 14:00:00 25.3 8 Sudoeste 17 Sur 0 -- -- 51
2020-05-02 13:00:00 23.9 7 Sur 14 Sur 0 -- -- 55
2020-05-02 12:00:00 22.1 3 Oeste 12 Sudoeste 0 -- -- 65
2020-05-02 11:00:00 19.9 5 Este 13 Este 0 -- -- 71
2020-05-02 10:00:00 17.3 6 Este 9 Este 0 -- -- 80
2020-05-02 09:00:00 12.8 0 Calma 2 Sudoeste 0 -- -- 98
2020-05-02 08:00:00 9.4 0 Calma 2 Nordeste 0 -- -- 98
2020-05-02 07:00:00 9.8 0 Calma 2 Sudoeste 0 -- -- 97
2020-05-02 06:00:00 10.1 2 Sudoeste 4 Sudeste 0 -- -- 95
2020-05-02 05:00:00 10.8 0 Calma 3 Sudeste 0 -- -- 95
2020-05-02 04:00:00 11.5 4 Sudeste 6 Sudeste 0 -- -- 94
2020-05-02 03:00:00 12.1 0 Calma 5 Este 0 -- -- 93
2020-05-02 02:00:00 12.7 0 Calma 4 Oeste 0 -- -- 92
2020-05-02 01:00:00 13.8 0 Calma 3 Sudeste 0 -- -- 90
2020-05-02 00:00:00 15.4 2 Noroeste 4 Noroeste 0 -- -- 83
2020-05-01 23:00:00 16.2 2 Norte 8 Noroeste 0 -- -- 83
2020-05-01 22:00:00 16.5 9 Noroeste 13 Noroeste 0 -- -- 82
2020-05-01 21:00:00 19.4 9 Noroeste 19 Noroeste 0 -- -- 72
2020-05-01 20:00:00 21.4 9 Norte 18 Noroeste 0 -- -- 63
2020-05-01 19:00:00 23.2 12 Oeste 23 Oeste 0 -- -- 56
2020-05-01 18:00:00 23.9 9 Oeste 24 Noroeste 0 -- -- 52
2020-05-01 17:00:00 24.3 10 Oeste 22 Oeste 0 -- -- 50
2020-05-01 16:00:00 23.6 9 Noroeste 26 Noroeste 0 -- -- 55
2020-05-01 15:00:00 22.8 7 Noroeste 23 Norte 0 -- -- 56
2020-05-01 14:00:00 21.7 8 Oeste 29 Oeste 0 -- -- 58
2020-05-01 13:00:00 20.2 4 Sudoeste 18 Noroeste 0 -- -- 62
2020-05-01 12:00:00 18.4 7 Oeste 18 Noroeste 0 -- -- 64
2020-05-01 11:00:00 17 9 Noroeste 18 Noroeste 0 -- -- 69
2020-05-01 10:00:00 15 3 Sudoeste 6 Oeste 0 -- -- 80
2020-05-01 09:00:00 12.1 2 Sudoeste 4 Sudoeste 0 -- -- 95
2020-05-01 08:00:00 8.6 0 Calma 5 Sur 0 -- -- 97
2020-05-01 07:00:00 8.6 3 Sur 6 Sur 0 -- -- 97
2020-05-01 06:00:00 8.5 0 Calma 4 Sudeste 0 -- -- 95
2020-05-01 05:00:00 8.9 0 Calma 6 Oeste 0 -- -- 95
2020-05-01 04:00:00 9.9 3 Sur 6 Sur 0 -- -- 95
2020-05-01 03:00:00 9.5 4 Oeste 5 Oeste 0 -- -- 93
2020-05-01 02:00:00 10 3 Sudoeste 8 Oeste 0 -- -- 91
2020-05-01 01:00:00 11.1 4 Noroeste 8 Noroeste 0 -- -- 91
2020-05-01 00:00:00 12.5 0 Calma 4 Noroeste 0 -- -- 86
2020-04-30 23:00:00 13 0 Calma 7 Noroeste 0 -- -- 85
2020-04-30 22:00:00 14.3 6 Oeste 12 Noroeste 0 -- -- 80
2020-04-30 21:00:00 16.2 9 Oeste 19 Oeste 0 -- -- 69
2020-04-30 20:00:00 17.4 10 Oeste 20 Oeste 0 -- -- 61
2020-04-30 19:00:00 18 12 Oeste 26 Oeste 0 -- -- 60
2020-04-30 18:00:00 18.2 17 Oeste 27 Noroeste 0 -- -- 59
2020-04-30 17:00:00 18.2 17 Oeste 26 Oeste 0 -- -- 56
2020-04-30 16:00:00 18.6 17 Noroeste 31 Oeste 0 -- -- 55
2020-04-30 15:00:00 18.1 17 Oeste 28 Oeste 0 -- -- 57
2020-04-30 14:00:00 17.9 10 Oeste 31 Oeste 0 -- -- 54
2020-04-30 13:00:00 15.5 13 Noroeste 26 Noroeste 0 -- -- 69
2020-04-30 12:00:00 14.5 12 Oeste 25 Noroeste 0 -- -- 73
2020-04-30 11:00:00 13.9 13 Oeste 24 Oeste 0 -- -- 75
2020-04-30 10:00:00 12.7 12 Oeste 27 Oeste 0 -- -- 90
2020-04-30 09:00:00 11.6 19 Noroeste 36 Noroeste 1 -- -- 95
2020-04-30 08:00:00 11.9 13 Sudoeste 20 Sudoeste 0 -- -- 92
2020-04-30 07:00:00 11.9 9 Sudoeste 17 Sudoeste 0 -- -- 91
2020-04-30 06:00:00 11.5 5 Sur 12 Sudoeste 0 -- -- 91
2020-04-30 05:00:00 11.1 7 Sudoeste 15 Sudoeste 0 -- -- 91
2020-04-30 04:00:00 11.2 8 Sudoeste 14 Sudoeste 0 -- -- 89
2020-04-30 03:00:00 12.1 9 Sudoeste 13 Sudoeste 0 -- -- 87
2020-04-30 02:00:00 12.4 4 Sur 28 Oeste 0 -- -- 85
2020-04-30 01:00:00 12.9 22 Oeste 34 Oeste 0 -- -- 82
2020-04-30 00:00:00 12.3 15 Sudoeste 26 Oeste 0 -- -- 87
2020-04-29 23:00:00 13.7 19 Oeste 33 Oeste 0 -- -- 80
2020-04-29 22:00:00 15.2 20 Oeste 29 Oeste 0 -- -- 72
2020-04-29 21:00:00 16.2 18 Oeste 34 Oeste 0 -- -- 63
2020-04-29 20:00:00 18.8 26 Oeste 39 Oeste 0 -- -- 52
2020-04-29 19:00:00 19.3 22 Oeste 33 Sudoeste 0 -- -- 49
2020-04-29 18:00:00 19.6 22 Sudoeste 41 Sudoeste 0 -- -- 46
2020-04-29 17:00:00 20.8 19 Sudoeste 37 Oeste 0 -- -- 46
2020-04-29 16:00:00 20.7 17 Oeste 35 Oeste 0 -- -- 49
2020-04-29 15:00:00 19.2 18 Oeste 31 Oeste 0 -- -- 51
2020-04-29 14:00:00 18.8 17 Oeste 35 Oeste 0 -- -- 50
2020-04-29 13:00:00 17.7 17 Sudoeste 31 Sudoeste 0 -- -- 56
2020-04-29 12:00:00 16.7 16 Sudoeste 26 Sudoeste 0 -- -- 58
2020-04-29 11:00:00 14.7 5 Sudoeste 10 Sur 0 -- -- 70
2020-04-29 10:00:00 12.6 7 Sur 12 Sur 0 -- -- 78
2020-04-29 09:00:00 9.8 3 Sur 8 Sur 0 -- -- 88
2020-04-29 08:00:00 5.5 2 Sur 7 Sur 0 -- -- 97
2020-04-29 07:00:00 5.1 0 Calma 4 Sur 0 -- -- 95
2020-04-29 06:00:00 5.2 0 Calma 4 Oeste 0 -- -- 95
2020-04-29 05:00:00 5.7 0 Calma 4 Sudoeste 0 -- -- 96
2020-04-29 04:00:00 5.7 4 Sudoeste 5 Sudoeste 0 -- -- 92
2020-04-29 03:00:00 6.8 0 Calma 4 Noroeste 0 -- -- 89
2020-04-29 02:00:00 7.6 0 Calma 3 Noroeste 0 -- -- 88
2020-04-29 01:00:00 7.8 4 Norte 8 Noroeste 0 -- -- 87
2020-04-29 00:00:00 8.4 4 Oeste 9 Oeste 0 -- -- 87
2020-04-28 23:00:00 8.8 7 Noroeste 10 Noroeste 0 -- -- 83
2020-04-28 22:00:00 10.4 6 Oeste 9 Oeste 0 -- -- 80
2020-04-28 21:00:00 13.6 9 Noroeste 24 Noroeste 0 -- -- 63
2020-04-28 20:00:00 16.4 16 Noroeste 26 Noroeste 0 -- -- 54
2020-04-28 19:00:00 17 15 Noroeste 27 Oeste 0 -- -- 50
2020-04-28 18:00:00 17.9 17 Noroeste 26 Oeste 0 -- -- 48
2020-04-28 17:00:00 16.9 18 Oeste 32 Oeste 0 -- -- 54
2020-04-28 16:00:00 16.3 15 Oeste 34 Oeste 0 -- -- 54
2020-04-28 15:00:00 16.9 15 Oeste 30 Oeste 0 -- -- 52
2020-04-28 14:00:00 17 14 Oeste 27 Oeste 0 -- -- 55
2020-04-28 13:00:00 15.7 12 Oeste 24 Noroeste 0 -- -- 59
2020-04-28 12:00:00 14.5 9 Noroeste 16 Noroeste 0 -- -- 57
2020-04-28 11:00:00 12.6 4 Norte 13 Noroeste 0 -- -- 83
2020-04-28 10:00:00 10.3 0 Calma 4 Oeste 0 -- -- 93
2020-04-28 09:00:00 8.3 0 Calma 3 Sudoeste 0 -- -- 99
2020-04-28 08:00:00 6.2 0 Calma 5 Sudoeste 0 -- -- 98
2020-04-28 07:00:00 5.8 3 Sudoeste 5 Sur 0 -- -- 96
2020-04-28 06:00:00 6.8 2 Sudoeste 6 Sur 0 -- -- 97
2020-04-28 05:00:00 7.5 2 Sur 6 Sur 0 -- -- 94
2020-04-28 04:00:00 7.6 2 Sudoeste 8 Sudoeste 0 -- -- 96
2020-04-28 03:00:00 7.5 4 Sudeste 5 Sur 0 -- -- 94
2020-04-28 02:00:00 8.7 2 Sur 7 Sur 0 -- -- 92
2020-04-28 01:00:00 8.8 2 Sur 5 Sur 0 -- -- 92
2020-04-28 00:00:00 9.2 2 Nordeste 8 Oeste 0 -- -- 92
2020-04-27 23:00:00 10 5 Oeste 16 Oeste 0 -- -- 89
2020-04-27 22:00:00 11.7 13 Oeste 18 Oeste 0 -- -- 83
2020-04-27 21:00:00 13.5 8 Sudoeste 15 Sudoeste 0 -- -- 85
2020-04-27 20:00:00 15.3 5 Sudoeste 18 Sudoeste 0 -- -- 78
2020-04-27 19:00:00 13.6 14 Sudoeste 32 Oeste 6.6 -- -- 87
2020-04-27 18:00:00 15.2 15 Sudoeste 28 Sudoeste 0.2 -- -- 69
2020-04-27 17:00:00 15.1 14 Sudoeste 22 Sudoeste 0 -- -- 73
2020-04-27 16:00:00 14.9 9 Sudoeste 22 Sudoeste 0 -- -- 72
2020-04-27 15:00:00 13.7 8 Sur 19 Sur 0 -- -- 81
2020-04-27 14:00:00 10.7 10 Sur 31 Sur 0.4 -- -- 94
2020-04-27 13:00:00 10.5 14 Sur 25 Sur 1 -- -- 92
2020-04-27 12:00:00 10.5 9 Sur 17 Sur 1.8 -- -- 92
2020-04-27 11:00:00 11.2 7 Sur 15 Sur 0.4 -- -- 93
2020-04-27 10:00:00 11.4 7 Sur 13 Sudeste 0 -- -- 90
2020-04-27 09:00:00 10.4 4 Sudeste 9 Sur 0 -- -- 96
2020-04-27 08:00:00 9 3 Sur 4 Sur 0 -- -- 94
2020-04-27 07:00:00 9.2 2 Sur 6 Sur 0 -- -- 94
2020-04-27 06:00:00 9.4 4 Sur 6 Sur 0 -- -- 94
2020-04-27 05:00:00 9.9 0 Calma 5 Noroeste 0 -- -- 92
2020-04-27 04:00:00 10.5 3 Sur 4 Sur 0 -- -- 90
2020-04-27 03:00:00 11.3 0 Calma 6 Sudoeste 0 -- -- 92
2020-04-27 02:00:00 11.7 6 Sudoeste 13 Sudoeste 0 -- -- 90
2020-04-27 01:00:00 11.4 6 Sur 13 Sur 0 -- -- 92
2020-04-27 00:00:00 12.4 5 Sur 9 Sur 0 -- -- 81
2020-04-26 23:00:00 12.5 6 Sudoeste 10 Sudoeste 0 -- -- 83
2020-04-26 22:00:00 12.8 7 Sudoeste 11 Sudoeste 0 -- -- 77
2020-04-26 21:00:00 13.7 6 Sudoeste 14 Sudoeste 0 -- -- 71
2020-04-26 20:00:00 14.9 12 Sudoeste 24 Oeste 0 -- -- 64
2020-04-26 19:00:00 15.6 14 Oeste 25 Sudoeste 0 -- -- 60
2020-04-26 18:00:00 15 15 Sudoeste 29 Sudoeste 0 -- -- 62
2020-04-26 17:00:00 16.3 17 Oeste 26 Oeste 0 -- -- 58
2020-04-26 16:00:00 16.4 10 Oeste 23 Oeste 0 -- -- 57
2020-04-26 15:00:00 16 9 Oeste 21 Oeste 0 -- -- 55
2020-04-26 14:00:00 15.2 11 Oeste 19 Oeste 0 -- -- 60
2020-04-26 13:00:00 14.5 7 Noroeste 15 Oeste 0 -- -- 61
2020-04-26 12:00:00 13.2 8 Oeste 18 Oeste 0 -- -- 70
2020-04-26 11:00:00 12.2 9 Noroeste 15 Noroeste 0 -- -- 73
2020-04-26 10:00:00 -- 0 Calma -- -- 0 -- -- --
2020-04-26 09:00:00 10.5 12 Noroeste 20 Oeste 0 -- -- 81
2020-04-26 08:00:00 9.4 13 Noroeste 19 Oeste 0 -- -- 91
2020-04-26 07:00:00 9.5 10 Noroeste 15 Noroeste 0 -- -- 91
2020-04-26 06:00:00 10.4 8 Noroeste 17 Oeste 0 -- -- 89
2020-04-26 05:00:00 11.2 10 Oeste 15 Oeste 0 -- -- 88
2020-04-26 04:00:00 11.7 4 Oeste 14 Oeste 0 -- -- 87
2020-04-26 03:00:00 12.1 8 Oeste 16 Noroeste 0 -- -- 90
2020-04-26 02:00:00 12.4 10 Noroeste 24 Oeste 0 -- -- 90
2020-04-26 01:00:00 12.8 15 Oeste 23 Oeste 0 -- -- 87
2020-04-26 00:00:00 13.1 13 Oeste 20 Oeste 0 -- -- 86